Rogers, MN

1:52 AM CDT on August 29, 2015 (GMT -0500)
Crystal | | Change Station
CLOSE
Current Station
Airport
Location: Minneapolis Crystal,
Elevation: 866 ft
Nearby Weather Stations

Elev 866 ft 45.06 °N, 93.35 °W | Updated 59 minutes ago

Clear
Clear
58 °F
Feels Like 58 °F
N
4
Wind Variable Wind from East

Today
High -- | Low -- °F
--% Chance of Precip.
Yesterday
High -- | Low -- °F
Precip. -- in
6:32 AM 7:57 PM
Full, 100% visible
Pressure 30.02 in
Visibility 9.0 miles
Clouds Clear
Dew Point 55 °F
Humidity 90%
Rainfall 0.00 in
Snow Depth Not available.
UV 0 out of 12
Pollen 1.00 out of 12
Air Quality Not available.
Flu Activity Not available.
METAR KMIC 290553Z AUTO 08003KT 9SM CLR 14/13 A3003 RMK AO2 SLP165 T01440128 10222 20144 402560144 56003
Pressure 30.02 in
Visibility 9.0 miles
Clouds Clear
Dew Point 55 °F
Humidity 90%
Rainfall 0.00 in
Snow Depth Not available.
UV 0 out of 12
Pollen 1.00 out of 12
Air Quality Not available.
Flu Activity Not available.
METAR KMIC 290553Z AUTO 08003KT 9SM CLR 14/13 A3003 RMK AO2 SLP165 T01440128 10222 20144 402560144 56003

10-Day Weather Forecast

×

Almanac

Astronomy

Aug. 29, 2015 Rise Set
Actual Time
Civil Twilight
Nautical Twilight
Astronomical Twilight
Moon
Length of Visible Light
Length of Day
Tomorrow will be .
, % of the Moon is Illuminated

Today's Extremes

State Highs State Lows

Community

WunderPhotos

Upload Photos

1,850,632 photos uploaded!

WunderBlogs® & News

Nearby

Air Quality

  Air Quality AQ Index Pollutant
Not available.

Snow Depth

Station Depth Elevation

Earthquake Activity

City Distance Mag. Time & Date
Minimum magnitude displayed is 2.5.

Coastal Water Temperatures

Place Temperature

Stations

Nearby Weather Stations

Station Location Temp. Windchill Dew Point Humidity Wind Precip. Elev Updated Type